createdAt,value
2018-12-12T00:00:33.336Z,96026.31
2018-12-12T00:03:04.283Z,96026.09
2018-12-12T00:05:35.178Z,96026.17
2018-12-12T00:08:06.172Z,96028.91
2018-12-12T00:10:37.234Z,96025.88
2018-12-12T00:13:07.321Z,96026.06
2018-12-12T00:18:37.484Z,96021.08
2018-12-12T00:21:09.399Z,96025.38
2018-12-12T00:23:45.279Z,96022.56
2018-12-12T00:26:16.425Z,96027.14
2018-12-12T00:28:47.630Z,96030.57
2018-12-12T00:31:18.078Z,96027.03
2018-12-12T00:33:48.557Z,96023.86
2018-12-12T00:36:19.021Z,96024.47
2018-12-12T00:38:49.577Z,96023.47
2018-12-12T00:41:20.268Z,96027.14
2018-12-12T00:43:50.714Z,96030.27
2018-12-12T00:46:21.283Z,96028.73
2018-12-12T00:48:51.461Z,96030.13
2018-12-12T00:51:25.297Z,96028.66
2018-12-12T00:53:57.429Z,96027.58
2018-12-12T00:56:35.337Z,96028.91
2018-12-12T00:59:06.509Z,96032.59
2018-12-12T01:01:36.516Z,96034.90
2018-12-12T01:04:07.557Z,96035.07
2018-12-12T01:06:38.510Z,96043.22
2018-12-12T01:09:09.197Z,96039.55
2018-12-12T01:11:44.616Z,96037.64
2018-12-12T01:14:16.523Z,96037.64
2018-12-12T01:16:46.559Z,96040.53
2018-12-12T01:19:18.087Z,96038.97
2018-12-12T01:21:48.769Z,96041.52
2018-12-12T01:24:19.505Z,96035.36
2018-12-12T01:26:49.664Z,96042.64
2018-12-12T01:29:26.425Z,96039.52
2018-12-12T01:31:57.667Z,96040.09
2018-12-12T01:34:28.711Z,96037.89
2018-12-12T01:37:01.936Z,96035.19
2018-12-12T01:39:32.634Z,96036.88
2018-12-12T01:42:03.656Z,96039.11
2018-12-12T01:44:38.500Z,96040.88
2018-12-12T01:47:09.572Z,96041.64
2018-12-12T01:49:41.346Z,96043.27
2018-12-12T01:52:13.936Z,96046.86
2018-12-12T01:54:46.196Z,96041.31
2018-12-12T01:57:18.146Z,96043.27
2018-12-12T01:59:48.707Z,96043.27
2018-12-12T02:02:18.757Z,96040.95
2018-12-12T02:04:48.766Z,96046.50
2018-12-12T02:07:20.085Z,96042.25
2018-12-12T02:09:51.719Z,96047.94
2018-12-12T02:12:21.794Z,96043.15
2018-12-12T02:14:57.268Z,96051.09
2018-12-12T02:17:28.886Z,96043.77
2018-12-12T02:19:58.947Z,96052.17
2018-12-12T02:22:29.838Z,96056.39
2018-12-12T02:25:00.806Z,96058.73
2018-12-12T02:27:31.698Z,96055.70
2018-12-12T02:30:02.189Z,96051.27
2018-12-12T02:32:33.034Z,96050.01
2018-12-12T02:35:03.813Z,96050.91
2018-12-12T02:37:35.198Z,96051.55
2018-12-12T02:40:05.932Z,96047.51
2018-12-12T02:42:35.993Z,96051.55
2018-12-12T02:45:07.014Z,96056.67
2018-12-12T02:47:37.029Z,96051.27
2018-12-12T02:50:08.064Z,96050.41
2018-12-12T02:52:38.498Z,96053.29
2018-12-12T02:55:09.093Z,96055.91
2018-12-12T02:57:39.619Z,96048.95
2018-12-12T03:00:10.587Z,96051.27
2018-12-12T03:02:41.478Z,96054.55
2018-12-12T03:05:11.472Z,96056.03
2018-12-12T03:07:42.054Z,96059.42
2018-12-12T03:10:12.561Z,96054.88
2018-12-12T03:12:42.613Z,96054.41
2018-12-12T03:15:13.791Z,96054.70
2018-12-12T03:17:44.329Z,96057.72
2018-12-12T03:20:14.950Z,96061.52
2018-12-12T03:22:45.416Z,96053.80
2018-12-12T03:25:16.262Z,96055.70
2018-12-12T03:27:46.940Z,96060.11
2018-12-12T03:30:17.200Z,96064.03
2018-12-12T03:32:51.039Z,96056.72
2018-12-12T03:35:22.116Z,96063.83
2018-12-12T03:37:52.112Z,96059.10
2018-12-12T03:40:23.700Z,96062.89
2018-12-12T03:42:54.689Z,96063.09
2018-12-12T03:45:25.221Z,96070.71
2018-12-12T03:47:56.092Z,96070.55
2018-12-12T03:50:26.398Z,96065.73
2018-12-12T03:52:57.808Z,96048.30
2018-12-12T03:55:28.228Z,96060.73
2018-12-12T03:58:01.256Z,96066.89
2018-12-12T04:00:32.249Z,96058.27
2018-12-12T04:03:02.277Z,96062.81
2018-12-12T04:05:33.430Z,96064.11
2018-12-12T04:08:04.333Z,96057.33
2018-12-12T04:10:37.348Z,96067.25
2018-12-12T04:13:11.032Z,96060.50
2018-12-12T04:15:41.503Z,96060.73
2018-12-12T04:18:12.424Z,96059.86
2018-12-12T04:20:52.244Z,96068.19
2018-12-12T04:23:28.052Z,96068.52
2018-12-12T04:26:09.298Z,96068.44
2018-12-12T04:28:55.207Z,96071.98
2018-12-12T04:31:43.095Z,96072.70
2018-12-12T04:34:29.183Z,96075.37
2018-12-12T04:40:28.546Z,96073.81
2018-12-12T04:43:13.792Z,96078.75
2018-12-12T04:46:05.138Z,96078.29
2018-12-12T04:48:41.075Z,96080.30
2018-12-12T04:51:25.250Z,96080.45
2018-12-12T04:54:11.055Z,96084.09
2018-12-12T04:56:55.008Z,96082.26
2018-12-12T04:59:32.375Z,96085.91
2018-12-12T05:02:04.405Z,96083.95
2018-12-12T05:04:39.632Z,96091.85
2018-12-12T05:07:22.760Z,96079.73
2018-12-12T05:10:06.457Z,96087.88
2018-12-12T05:12:54.780Z,96088.20
2018-12-12T05:15:36.426Z,96085.87
2018-12-12T05:18:24.507Z,96088.39
2018-12-12T05:20:55.647Z,96092.11
2018-12-12T05:23:26.638Z,96094.59
2018-12-12T05:25:58.988Z,96096.22
2018-12-12T05:28:30.813Z,96094.64
2018-12-12T05:31:04.580Z,96091.42
2018-12-12T05:33:34.653Z,96093.02
2018-12-12T05:36:05.924Z,96091.19
2018-12-12T05:38:36.555Z,96094.47
2018-12-12T05:41:06.566Z,96090.68
2018-12-12T05:43:37.603Z,96104.29
2018-12-12T05:46:11.406Z,96108.98
2018-12-12T05:48:41.904Z,96106.45
2018-12-12T05:51:12.743Z,96114.09
2018-12-12T05:53:42.749Z,96116.39
2018-12-12T05:56:14.733Z,96124.94
2018-12-12T05:58:45.778Z,96131.50
2018-12-12T06:01:18.791Z,96130.30
2018-12-12T06:03:49.813Z,96133.10
2018-12-12T06:06:26.825Z,96141.67
2018-12-12T06:08:56.897Z,96148.05
2018-12-12T06:11:27.852Z,96145.83
2018-12-12T06:13:58.682Z,96149.61
2018-12-12T06:16:28.809Z,96159.14
2018-12-12T06:19:02.637Z,96157.09
2018-12-12T06:21:32.904Z,96150.88
2018-12-12T06:24:06.685Z,96153.40
2018-12-12T06:26:37.523Z,96160.48
2018-12-12T06:29:07.977Z,96163.00
2018-12-12T06:31:38.841Z,96164.19
2018-12-12T06:34:08.893Z,96167.91
2018-12-12T06:36:39.984Z,96167.48
2018-12-12T06:39:15.763Z,96173.73
2018-12-12T06:41:46.132Z,96168.55
2018-12-12T06:44:17.859Z,96171.20
2018-12-12T06:46:49.070Z,96172.80
2018-12-12T06:49:19.087Z,96181.23
2018-12-12T06:51:49.106Z,96184.85
2018-12-12T06:54:23.471Z,96189.83
2018-12-12T06:56:55.080Z,96194.19
2018-12-12T06:59:25.085Z,96182.90
2018-12-12T07:01:55.130Z,96206.95
2018-12-12T07:04:26.042Z,96212.52
2018-12-12T07:06:57.740Z,96216.86
2018-12-12T07:09:28.121Z,96211.42
2018-12-12T07:12:01.000Z,96209.83
2018-12-12T07:14:32.089Z,96206.75
2018-12-12T07:17:03.307Z,96206.39
2018-12-12T07:19:36.952Z,96210.81
2018-12-12T07:22:07.100Z,96190.09
2018-12-12T07:24:40.992Z,96217.40
2018-12-12T07:27:11.337Z,96220.87
2018-12-12T07:29:42.325Z,96220.94
2018-12-12T07:32:15.986Z,96226.84
2018-12-12T07:34:46.065Z,96227.77
2018-12-12T07:37:17.127Z,96223.72
2018-12-12T07:39:53.418Z,96233.80
2018-12-12T07:42:27.146Z,96233.67
2018-12-12T07:44:58.245Z,96233.24
2018-12-12T07:47:31.212Z,96246.56
2018-12-12T07:50:02.172Z,96254.01
2018-12-12T07:52:33.305Z,96250.02
2018-12-12T07:55:06.402Z,96250.43
2018-12-12T07:57:37.353Z,96243.50
2018-12-12T08:00:11.197Z,96249.23
2018-12-12T08:02:41.865Z,96240.59
2018-12-12T08:05:13.388Z,96245.31
2018-12-12T08:07:49.586Z,96244.52
2018-12-12T08:10:23.841Z,96234.60
2018-12-12T08:13:00.505Z,96240.81
2018-12-12T08:15:39.088Z,96243.13
2018-12-12T08:18:11.166Z,96244.04
2018-12-12T08:20:42.244Z,96244.61
2018-12-12T08:23:14.635Z,96243.22
2018-12-12T08:25:51.045Z,96247.34
2018-12-12T08:28:26.508Z,96243.42
2018-12-12T08:31:03.884Z,96247.98
2018-12-12T08:33:38.403Z,96249.54
2018-12-12T08:36:09.181Z,96251.63
2018-12-12T08:38:45.246Z,96256.92
2018-12-12T08:41:24.379Z,96255.98
2018-12-12T08:44:01.351Z,96263.13
2018-12-12T08:46:33.057Z,96265.26
2018-12-12T08:49:09.925Z,96266.85
2018-12-12T08:51:43.091Z,96264.77
2018-12-12T08:54:18.820Z,96273.37
2018-12-12T08:56:52.595Z,96276.63
2018-12-12T08:59:27.640Z,96271.58
2018-12-12T09:02:00.482Z,96274.94
2018-12-12T09:04:40.068Z,96276.13
2018-12-12T09:07:10.667Z,96275.97
2018-12-12T09:09:42.648Z,96281.65
2018-12-12T09:12:16.580Z,96284.41
2018-12-12T09:14:48.490Z,96289.39
2018-12-12T09:17:18.617Z,96277.59
2018-12-12T09:19:48.685Z,96283.91
2018-12-12T09:22:20.673Z,96282.02
2018-12-12T09:27:51.533Z,96269.77
2018-12-12T09:30:22.749Z,96271.20
2018-12-12T09:32:53.473Z,96273.86
2018-12-12T09:35:24.721Z,96272.47
2018-12-12T09:37:54.741Z,96274.63
2018-12-12T09:40:28.612Z,96277.91
2018-12-12T09:42:59.774Z,96273.23
2018-12-12T09:45:29.786Z,96280.62
2018-12-12T09:48:00.780Z,96275.39
2018-12-12T09:50:30.924Z,96283.83
2018-12-12T09:53:09.696Z,96279.61
2018-12-12T09:55:41.905Z,96278.53
2018-12-12T09:58:17.587Z,96276.63
2018-12-12T10:00:48.898Z,96279.80
2018-12-12T10:03:22.701Z,96284.28
2018-12-12T10:05:52.987Z,96281.19
2018-12-12T10:08:27.921Z,96279.59
2018-12-12T10:11:01.649Z,96279.92
2018-12-12T10:13:31.899Z,96277.97
2018-12-12T10:16:04.983Z,96268.16
2018-12-12T10:18:36.516Z,96280.63
2018-12-12T10:21:10.088Z,96274.54
2018-12-12T10:23:42.305Z,96281.20
2018-12-12T10:26:13.328Z,96288.77
2018-12-12T10:28:43.828Z,96281.81
2018-12-12T10:31:14.393Z,96280.55
2018-12-12T10:33:49.070Z,96277.59
2018-12-12T10:36:23.218Z,96282.31
2018-12-12T10:38:56.257Z,96280.48
2018-12-12T10:41:27.750Z,96277.31
2018-12-12T10:44:00.995Z,96267.13
2018-12-12T10:46:31.122Z,96268.72
2018-12-12T10:49:02.112Z,96273.49
2018-12-12T10:51:37.798Z,96269.13
2018-12-12T10:54:09.150Z,96266.92
2018-12-12T10:56:45.200Z,96267.08
2018-12-12T10:59:16.111Z,96272.45
2018-12-12T11:01:48.510Z,96265.63
2018-12-12T11:04:20.363Z,96267.66
2018-12-12T11:06:51.166Z,96264.98
2018-12-12T11:09:25.005Z,96269.14
2018-12-12T11:11:56.853Z,96264.05
2018-12-12T11:14:28.405Z,96261.77
2018-12-12T11:17:01.945Z,96261.11
2018-12-12T11:19:33.107Z,96262.95
2018-12-12T11:22:04.145Z,96263.67
2018-12-12T11:24:35.175Z,96263.09
2018-12-12T11:27:05.270Z,96261.26
2018-12-12T11:29:36.206Z,96264.19
2018-12-12T11:32:07.160Z,96267.72
2018-12-12T11:34:37.200Z,96267.30
2018-12-12T11:37:08.347Z,96264.51
2018-12-12T11:39:39.252Z,96263.93
2018-12-12T11:42:13.131Z,96270.55
2018-12-12T11:47:44.868Z,96263.36
2018-12-12T11:50:15.300Z,96265.38
2018-12-12T11:52:49.162Z,96264.36
2018-12-12T11:55:19.488Z,96263.03
2018-12-12T11:57:53.151Z,96261.18
2018-12-12T12:00:23.311Z,96262.38
2018-12-12T12:02:54.233Z,96268.02
2018-12-12T12:05:25.367Z,96269.53
2018-12-12T12:08:04.364Z,96276.98
2018-12-12T12:10:34.560Z,96275.45
2018-12-12T12:13:09.548Z,96272.45
2018-12-12T12:15:42.513Z,96271.08
2018-12-12T12:18:13.471Z,96270.09
2018-12-12T12:20:43.505Z,96272.16
2018-12-12T12:23:14.369Z,96273.11
2018-12-12T12:25:46.428Z,96270.07
2018-12-12T12:28:18.491Z,96272.20
2018-12-12T12:30:49.546Z,96275.35
2018-12-12T12:33:21.250Z,96271.56
2018-12-12T12:35:52.668Z,96277.59
2018-12-12T12:38:27.625Z,96276.28
2018-12-12T12:41:01.453Z,96271.15
2018-12-12T12:43:32.444Z,96276.64
2018-12-12T12:46:06.421Z,96275.09
2018-12-12T12:48:37.705Z,96273.31
2018-12-12T12:51:08.753Z,96275.84
2018-12-12T12:53:41.651Z,96273.97
2018-12-12T12:59:15.585Z,96280.30
2018-12-12T13:01:46.899Z,96277.73
2018-12-12T13:04:19.687Z,96273.94
2018-12-12T13:06:50.183Z,96277.84
2018-12-12T13:09:21.500Z,96273.11
2018-12-12T13:11:51.994Z,96275.77
2018-12-12T13:14:22.776Z,96276.50
2018-12-12T13:16:52.779Z,96278.38
2018-12-12T13:19:23.880Z,96280.91
2018-12-12T13:21:54.625Z,96280.91
2018-12-12T13:24:24.731Z,96281.70
2018-12-12T13:26:55.743Z,96282.60
2018-12-12T13:29:35.581Z,96280.07
2018-12-12T13:32:06.646Z,96270.79
2018-12-12T13:34:36.845Z,96276.50
2018-12-12T13:37:07.733Z,96278.09
2018-12-12T13:39:38.808Z,96283.52
2018-12-12T13:42:11.948Z,96285.17
2018-12-12T13:44:43.006Z,96284.74
2018-12-12T13:47:17.263Z,96286.05
2018-12-12T13:49:46.865Z,96292.76
2018-12-12T13:52:21.652Z,96295.94
2018-12-12T13:54:53.940Z,96296.80
2018-12-12T13:57:25.945Z,96297.81
2018-12-12T13:59:57.093Z,96292.11
2018-12-12T14:02:28.044Z,96287.31
2018-12-12T14:04:58.886Z,96290.22
2018-12-12T14:07:28.961Z,96292.94
2018-12-12T14:09:59.312Z,96291.04
2018-12-12T14:12:29.994Z,96286.88
2018-12-12T14:15:03.896Z,96288.21
2018-12-12T14:17:33.940Z,96286.77
2018-12-12T14:20:05.467Z,96289.23
2018-12-12T14:22:39.354Z,96291.12
2018-12-12T14:25:11.913Z,96283.53
2018-12-12T14:27:42.460Z,96282.90
2018-12-12T14:30:12.984Z,96281.50
2018-12-12T14:32:43.103Z,96283.45
2018-12-12T14:35:19.901Z,96281.33
2018-12-12T14:37:51.482Z,96284.98
2018-12-12T14:40:23.985Z,96287.88
2018-12-12T14:42:55.101Z,96291.59
2018-12-12T14:45:26.029Z,96287.38
2018-12-12T15:45:06.277Z,96291.05
2018-12-12T15:50:35.679Z,96287.20
2018-12-12T15:53:11.231Z,96287.50
2018-12-12T15:55:42.364Z,96291.29
2018-12-12T15:58:13.348Z,96291.19
2018-12-12T16:00:43.425Z,96278.09
2018-12-12T16:03:16.845Z,96280.19
2018-12-12T16:05:49.420Z,96282.70
2018-12-12T16:08:23.247Z,96281.02
2018-12-12T16:10:54.257Z,96291.98
2018-12-12T16:13:24.688Z,96289.23
2018-12-12T16:15:55.418Z,96294.34
2018-12-12T16:18:25.474Z,96286.77
2018-12-12T16:20:55.534Z,96290.98
2018-12-12T16:23:25.576Z,96296.11
2018-12-12T16:25:57.952Z,96288.03
2018-12-12T16:28:28.293Z,96292.69
2018-12-12T16:30:58.425Z,96295.71
2018-12-12T16:33:29.366Z,96295.34
2018-12-12T16:36:00.030Z,96297.88
2018-12-12T16:38:30.789Z,96297.88
2018-12-12T16:41:00.848Z,96297.44
2018-12-12T16:43:31.444Z,96295.28
2018-12-12T16:46:01.489Z,96292.75
2018-12-12T16:48:37.902Z,96295.71
2018-12-12T16:51:08.509Z,96300.33
2018-12-12T16:53:40.178Z,96301.23
2018-12-12T16:56:10.832Z,96296.11
2018-12-12T16:58:40.929Z,96289.73
2018-12-12T17:01:17.905Z,96293.19
2018-12-12T17:03:51.080Z,96293.31
2018-12-12T17:06:25.521Z,96292.12
2018-12-12T17:08:55.600Z,96288.13
2018-12-12T17:11:26.687Z,96293.58
2018-12-12T17:13:56.719Z,96287.20
2018-12-12T17:16:30.517Z,96292.55
2018-12-12T17:19:00.594Z,96288.77
2018-12-12T17:21:31.737Z,96291.29
2018-12-12T17:24:05.676Z,96290.92
2018-12-12T17:26:36.774Z,96291.35
2018-12-12T17:29:12.523Z,96290.92
2018-12-12T17:31:43.367Z,96284.11
2018-12-12T17:34:14.385Z,96288.89
2018-12-12T17:36:57.631Z,96289.89
2018-12-12T17:39:27.752Z,96289.03
2018-12-12T17:41:57.793Z,96290.16
2018-12-12T17:44:34.518Z,96297.73
2018-12-12T17:47:18.570Z,96300.27
2018-12-12T17:49:52.075Z,96303.62
2018-12-12T17:52:23.751Z,96300.66
2018-12-12T17:54:56.932Z,96301.52
2018-12-12T17:57:27.875Z,96304.12
2018-12-12T18:00:00.862Z,96307.07
2018-12-12T18:02:36.941Z,96303.75
2018-12-12T18:05:15.258Z,96303.75
2018-12-12T18:07:43.856Z,96297.10
2018-12-12T18:10:15.878Z,96299.33
2018-12-12T18:12:46.955Z,96300.25
2018-12-12T18:15:17.118Z,96297.36
2018-12-12T18:17:56.017Z,96302.08
2018-12-12T18:20:30.002Z,96302.52
2018-12-12T18:23:07.255Z,96298.36
2018-12-12T18:25:37.925Z,96300.52
2018-12-12T18:28:08.032Z,96300.11
2018-12-12T18:30:49.825Z,96300.11
2018-12-12T18:33:27.554Z,96306.30
2018-12-12T18:36:00.702Z,96306.23
2018-12-12T18:38:32.277Z,96302.02
2018-12-12T18:41:06.002Z,96308.27
2018-12-12T18:43:42.854Z,96306.20
2018-12-12T18:48:40.064Z,96305.03
2018-12-12T18:51:10.208Z,96307.39
2018-12-12T18:53:51.939Z,96307.26
2018-12-12T18:56:23.113Z,96308.83
2018-12-12T18:58:59.468Z,96307.95
2018-12-12T19:01:33.952Z,96303.71
2018-12-12T19:04:06.964Z,96304.86
2018-12-12T19:06:37.398Z,96309.78
2018-12-12T19:09:08.461Z,96306.92
2018-12-12T19:11:44.342Z,96311.11
2018-12-12T19:14:27.226Z,96317.22
2018-12-12T19:16:58.358Z,96320.36
2018-12-12T19:19:31.286Z,96320.80
2018-12-12T19:22:08.605Z,96322.39
2018-12-12T19:24:50.321Z,96318.11
2018-12-12T19:27:21.482Z,96319.74
2018-12-12T19:30:02.131Z,96322.20
2018-12-12T19:32:42.032Z,96316.61
2018-12-12T19:35:12.569Z,96321.59
2018-12-12T19:37:50.616Z,96318.70
2018-12-12T19:40:27.476Z,96321.45
2018-12-12T19:43:01.537Z,96321.64
2018-12-12T19:45:31.958Z,96320.11
2018-12-12T19:48:02.647Z,96321.94
2018-12-12T19:59:38.509Z,96332.50
2018-12-12T20:02:09.669Z,96332.07
2018-12-12T20:04:48.365Z,96336.69
2018-12-12T20:07:26.048Z,96347.92
2018-12-12T20:09:57.057Z,96348.02
2018-12-12T20:12:29.821Z,96347.31
2018-12-12T20:15:10.545Z,96347.44
2018-12-12T20:17:46.464Z,96350.14
2018-12-12T20:20:16.968Z,96352.70
2018-12-12T20:22:47.697Z,96355.41
2018-12-12T20:25:23.462Z,96353.03
2018-12-12T20:27:53.540Z,96353.93
2018-12-12T20:30:25.053Z,96358.20
2018-12-12T20:32:59.119Z,96362.06
2018-12-12T20:35:34.708Z,96360.36
2018-12-12T20:38:14.483Z,96359.53
2018-12-12T20:40:44.523Z,96356.08
2018-12-12T20:43:15.710Z,96357.84
2018-12-12T20:45:46.392Z,96358.27
2018-12-12T20:48:16.577Z,96356.20
2018-12-12T20:50:53.661Z,96352.39
2018-12-12T20:53:24.627Z,96356.17
2018-12-12T20:55:54.683Z,96354.02
2018-12-12T20:58:25.625Z,96353.52
2018-12-12T21:00:56.817Z,96351.77
2018-12-12T21:03:27.816Z,96354.36
2018-12-12T21:06:05.451Z,96355.65
2018-12-12T21:08:38.419Z,96356.05
2018-12-12T21:11:08.921Z,96360.48
2018-12-12T21:13:39.653Z,96361.25
2018-12-12T21:16:10.485Z,96359.22
2018-12-12T21:18:41.017Z,96358.88
2018-12-12T21:21:11.634Z,96358.57
2018-12-12T21:23:42.177Z,96361.95
2018-12-12T21:26:13.125Z,96364.55
2018-12-12T21:28:43.150Z,96364.48
2018-12-12T21:31:13.872Z,96366.91
2018-12-12T21:33:43.992Z,96364.33
2018-12-12T21:36:14.855Z,96366.91
2018-12-12T21:38:45.739Z,96372.83
2018-12-12T21:41:16.477Z,96365.74
2018-12-12T21:43:47.081Z,96376.73
2018-12-12T21:46:17.662Z,96371.25
2018-12-12T21:48:48.328Z,96376.67
2018-12-12T21:51:18.844Z,96378.33
2018-12-12T21:53:49.557Z,96378.58
2018-12-12T21:56:20.077Z,96381.23
2018-12-12T22:01:58.022Z,96384.67
2018-12-12T22:04:39.734Z,96383.53
2018-12-12T22:07:10.984Z,96379.86
2018-12-12T22:09:41.908Z,96382.02
2018-12-12T22:12:20.814Z,96377.23
2018-12-12T22:15:01.631Z,96373.16
2018-12-12T22:17:38.360Z,96381.56
2018-12-12T22:20:17.045Z,96380.42
2018-12-12T22:22:58.015Z,96380.30
2018-12-12T22:25:28.986Z,96380.95
2018-12-12T22:28:00.115Z,96380.84
2018-12-12T22:30:35.999Z,96376.41
2018-12-12T22:33:07.142Z,96376.46
2018-12-12T22:35:37.273Z,96378.45
2018-12-12T22:38:07.964Z,96390.17
2018-12-12T22:40:38.074Z,96385.06
2018-12-12T22:43:09.000Z,96386.33
2018-12-12T22:45:45.033Z,96385.06
2018-12-12T22:48:20.538Z,96378.76
2018-12-12T22:50:49.916Z,96380.85
2018-12-12T22:53:20.014Z,96382.00
2018-12-12T22:55:50.161Z,96377.61
2018-12-12T22:58:27.878Z,96387.39
2018-12-12T23:01:02.428Z,96384.53
2018-12-12T23:03:35.484Z,96386.67
2018-12-12T23:06:08.203Z,96385.67
2018-12-12T23:08:49.141Z,96384.58
2018-12-12T23:11:22.207Z,96385.78
2018-12-12T23:13:58.736Z,96380.43
2018-12-12T23:16:36.393Z,96377.94
2018-12-12T23:19:15.191Z,96376.42
2018-12-12T23:21:54.928Z,96379.71
2018-12-12T23:24:33.713Z,96379.25
2018-12-12T23:27:14.425Z,96376.02
2018-12-12T23:29:50.143Z,96373.00
2018-12-12T23:32:22.310Z,96376.30
2018-12-12T23:34:53.292Z,96372.89
2018-12-12T23:37:30.973Z,96370.28
2018-12-12T23:40:03.327Z,96371.31
2018-12-12T23:42:34.090Z,96370.11
2018-12-12T23:45:04.737Z,96368.99
2018-12-12T23:47:35.344Z,96365.55
2018-12-12T23:50:06.000Z,96365.16
2018-12-12T23:52:36.888Z,96364.41
2018-12-12T23:55:07.217Z,96363.41
2018-12-12T23:57:37.569Z,96358.11
